sensor_id;sensor_type;location;lat;lon;timestamp;P1;P2;P0
65976;PMS5003;56855;54.954;73.336;2022-07-01T00:00:30;1.00;1.00;0.00
65976;PMS5003;56855;54.954;73.336;2022-07-01T00:02:41;2.00;0.00;0.00
65976;PMS5003;56855;54.954;73.336;2022-07-01T00:04:47;1.00;0.00;0.00
65976;PMS5003;56855;54.954;73.336;2022-07-01T00:06:47;1.00;1.00;0.00
65976;PMS5003;56855;54.954;73.336;2022-07-01T00:08:48;1.00;1.00;0.00
65976;PMS5003;56855;54.954;73.336;2022-07-01T00:10:49;0.00;0.00;0.00
65976;PMS5003;56855;54.954;73.336;2022-07-01T00:12:49;0.00;0.00;0.00
65976;PMS5003;56855;54.954;73.336;2022-07-01T00:14:50;0.00;0.00;0.00
65976;PMS5003;56855;54.954;73.336;2022-07-01T00:17:00;0.00;0.00;0.00
65976;PMS5003;56855;54.954;73.336;2022-07-01T00:19:06;1.25;1.00;0.00
65976;PMS5003;56855;54.954;73.336;2022-07-01T00:21:07;2.00;2.00;0.00
65976;PMS5003;56855;54.954;73.336;2022-07-01T00:23:18;3.25;1.00;0.00
65976;PMS5003;56855;54.954;73.336;2022-07-01T00:25:30;1.00;0.00;0.00
65976;PMS5003;56855;54.954;73.336;2022-07-01T00:27:30;1.00;0.67;0.00
65976;PMS5003;56855;54.954;73.336;2022-07-01T00:29:31;1.00;0.00;0.00
65976;PMS5003;56855;54.954;73.336;2022-07-01T00:31:33;1.00;0.00;0.00
65976;PMS5003;56855;54.954;73.336;2022-07-01T00:33:34;1.00;1.00;0.00
65976;PMS5003;56855;54.954;73.336;2022-07-01T00:35:39;1.00;1.00;0.00
65976;PMS5003;56855;54.954;73.336;2022-07-01T00:37:40;1.00;0.00;0.00
65976;PMS5003;56855;54.954;73.336;2022-07-01T00:39:50;0.00;0.00;0.00
65976;PMS5003;56855;54.954;73.336;2022-07-01T00:41:51;0.33;0.33;0.00
65976;PMS5003;56855;54.954;73.336;2022-07-01T00:43:52;2.00;2.00;0.00
65976;PMS5003;56855;54.954;73.336;2022-07-01T00:45:53;2.00;1.00;0.00
65976;PMS5003;56855;54.954;73.336;2022-07-01T00:47:54;0.00;0.00;0.00
65976;PMS5003;56855;54.954;73.336;2022-07-01T00:49:55;3.00;2.00;0.00
65976;PMS5003;56855;54.954;73.336;2022-07-01T00:51:56;0.33;0.00;0.00
65976;PMS5003;56855;54.954;73.336;2022-07-01T00:53:58;0.00;0.00;0.00
65976;PMS5003;56855;54.954;73.336;2022-07-01T00:55:59;0.00;0.00;0.00
65976;PMS5003;56855;54.954;73.336;2022-07-01T00:58:00;0.00;0.00;0.00
65976;PMS5003;56855;54.954;73.336;2022-07-01T01:00:01;1.67;0.67;0.00
65976;PMS5003;56855;54.954;73.336;2022-07-01T01:02:03;3.25;2.25;0.00
65976;PMS5003;56855;54.954;73.336;2022-07-01T01:04:10;1.00;1.00;0.00
65976;PMS5003;56855;54.954;73.336;2022-07-01T01:06:10;2.67;2.00;0.00
65976;PMS5003;56855;54.954;73.336;2022-07-01T01:08:11;1.75;1.00;0.00
65976;PMS5003;56855;54.954;73.336;2022-07-01T01:10:22;0.25;0.25;0.00
65976;PMS5003;56855;54.954;73.336;2022-07-01T01:12:30;1.50;0.00;0.00
65976;PMS5003;56855;54.954;73.336;2022-07-01T01:14:42;1.00;1.00;0.00
65976;PMS5003;56855;54.954;73.336;2022-07-01T01:16:43;1.75;0.00;0.00
65976;PMS5003;56855;54.954;73.336;2022-07-01T01:18:50;2.00;1.00;0.00
65976;PMS5003;56855;54.954;73.336;2022-07-01T01:20:54;1.67;1.00;0.00
65976;PMS5003;56855;54.954;73.336;2022-07-01T01:22:54;2.00;1.00;0.00
65976;PMS5003;56855;54.954;73.336;2022-07-01T01:24:55;3.00;1.33;0.00
65976;PMS5003;56855;54.954;73.336;2022-07-01T01:26:57;2.50;2.50;0.00
65976;PMS5003;56855;54.954;73.336;2022-07-01T01:29:04;1.00;1.00;0.00
65976;PMS5003;56855;54.954;73.336;2022-07-01T01:31:09;2.00;2.00;0.00
65976;PMS5003;56855;54.954;73.336;2022-07-01T01:33:11;3.00;2.75;0.00
65976;PMS5003;56855;54.954;73.336;2022-07-01T01:35:11;2.00;2.00;0.00
65976;PMS5003;56855;54.954;73.336;2022-07-01T01:37:13;3.00;1.00;0.00
65976;PMS5003;56855;54.954;73.336;2022-07-01T01:39:24;1.00;1.00;0.00
65976;PMS5003;56855;54.954;73.336;2022-07-01T01:41:26;2.00;2.00;0.00
65976;PMS5003;56855;54.954;73.336;2022-07-01T01:43:32;3.00;0.00;0.00
65976;PMS5003;56855;54.954;73.336;2022-07-01T01:45:34;1.00;0.00;0.00
65976;PMS5003;56855;54.954;73.336;2022-07-01T01:47:35;1.00;0.00;0.00
65976;PMS5003;56855;54.954;73.336;2022-07-01T01:49:46;2.00;0.00;0.00
65976;PMS5003;56855;54.954;73.336;2022-07-01T01:51:46;1.33;1.33;0.00
65976;PMS5003;56855;54.954;73.336;2022-07-01T01:53:52;1.50;1.50;0.00
65976;PMS5003;56855;54.954;73.336;2022-07-01T01:56:02;0.00;0.00;0.00
65976;PMS5003;56855;54.954;73.336;2022-07-01T01:58:03;0.00;0.00;0.00
65976;PMS5003;56855;54.954;73.336;2022-07-01T02:00:04;0.67;0.00;0.00
65976;PMS5003;56855;54.954;73.336;2022-07-01T02:02:05;0.00;0.00;0.00
65976;PMS5003;56855;54.954;73.336;2022-07-01T02:04:16;0.00;0.00;0.00
65976;PMS5003;56855;54.954;73.336;2022-07-01T02:06:17;1.00;0.00;0.00
65976;PMS5003;56855;54.954;73.336;2022-07-01T02:08:24;1.25;0.00;0.00
65976;PMS5003;56855;54.954;73.336;2022-07-01T02:10:24;1.00;0.00;0.00
65976;PMS5003;56855;54.954;73.336;2022-07-01T02:12:25;1.00;0.00;0.00
65976;PMS5003;56855;54.954;73.336;2022-07-01T02:14:25;3.33;0.00;0.00
65976;PMS5003;56855;54.954;73.336;2022-07-01T02:16:26;2.00;1.67;0.00
65976;PMS5003;56855;54.954;73.336;2022-07-01T02:18:32;2.00;1.00;0.00
65976;PMS5003;56855;54.954;73.336;2022-07-01T02:20:44;1.00;0.00;0.00
65976;PMS5003;56855;54.954;73.336;2022-07-01T02:22:44;1.33;0.00;0.00
65976;PMS5003;56855;54.954;73.336;2022-07-01T02:24:45;1.00;1.00;0.00
65976;PMS5003;56855;54.954;73.336;2022-07-01T02:26:46;1.00;0.00;0.00
65976;PMS5003;56855;54.954;73.336;2022-07-01T02:28:46;1.00;0.00;0.00
65976;PMS5003;56855;54.954;73.336;2022-07-01T02:30:47;1.00;1.00;0.00
65976;PMS5003;56855;54.954;73.336;2022-07-01T02:32:57;1.00;1.00;0.00
65976;PMS5003;56855;54.954;73.336;2022-07-01T02:34:58;0.33;0.00;0.00
65976;PMS5003;56855;54.954;73.336;2022-07-01T02:36:59;2.67;0.67;0.00
65976;PMS5003;56855;54.954;73.336;2022-07-01T02:38:59;1.00;0.00;0.00
65976;PMS5003;56855;54.954;73.336;2022-07-01T02:41:00;3.00;0.33;0.00
65976;PMS5003;56855;54.954;73.336;2022-07-01T02:43:01;1.50;1.50;0.00
65976;PMS5003;56855;54.954;73.336;2022-07-01T02:45:03;1.00;1.00;0.00
65976;PMS5003;56855;54.954;73.336;2022-07-01T02:47:04;1.75;1.00;0.00
65976;PMS5003;56855;54.954;73.336;2022-07-01T02:49:13;2.00;1.00;0.00
65976;PMS5003;56855;54.954;73.336;2022-07-01T02:51:20;2.00;2.00;0.00
65976;PMS5003;56855;54.954;73.336;2022-07-01T02:53:21;1.00;1.00;0.00
65976;PMS5003;56855;54.954;73.336;2022-07-01T02:55:28;0.00;0.00;0.00
65976;PMS5003;56855;54.954;73.336;2022-07-01T02:57:35;3.00;2.25;0.00
65976;PMS5003;56855;54.954;73.336;2022-07-01T02:59:36;1.00;1.00;0.00
65976;PMS5003;56855;54.954;73.336;2022-07-01T03:01:36;1.00;1.00;0.00
65976;PMS5003;56855;54.954;73.336;2022-07-01T03:03:37;3.00;2.67;0.00
65976;PMS5003;56855;54.954;73.336;2022-07-01T03:05:38;1.00;1.00;0.00
65976;PMS5003;56855;54.954;73.336;2022-07-01T03:07:43;0.75;0.75;0.00
65976;PMS5003;56855;54.954;73.336;2022-07-01T03:09:44;0.00;0.00;0.00
65976;PMS5003;56855;54.954;73.336;2022-07-01T03:11:55;1.50;0.25;0.00
65976;PMS5003;56855;54.954;73.336;2022-07-01T03:14:01;2.50;2.50;0.00
65976;PMS5003;56855;54.954;73.336;2022-07-01T03:16:11;2.00;2.00;0.00
65976;PMS5003;56855;54.954;73.336;2022-07-01T03:18:11;0.00;0.00;0.00
65976;PMS5003;56855;54.954;73.336;2022-07-01T03:20:13;1.00;0.00;0.00
65976;PMS5003;56855;54.954;73.336;2022-07-01T03:22:14;3.00;2.00;0.00
65976;PMS5003;56855;54.954;73.336;2022-07-01T03:24:15;0.00;0.00;0.00
65976;PMS5003;56855;54.954;73.336;2022-07-01T03:26:17;1.75;1.00;0.00
65976;PMS5003;56855;54.954;73.336;2022-07-01T03:28:28;1.00;1.00;0.00
65976;PMS5003;56855;54.954;73.336;2022-07-01T03:30:28;0.00;0.00;0.00
65976;PMS5003;56855;54.954;73.336;2022-07-01T03:32:29;2.00;0.00;0.00
65976;PMS5003;56855;54.954;73.336;2022-07-01T03:34:30;2.25;2.25;0.00
65976;PMS5003;56855;54.954;73.336;2022-07-01T03:36:30;2.00;2.00;0.00
65976;PMS5003;56855;54.954;73.336;2022-07-01T03:38:31;1.25;1.00;0.00
65976;PMS5003;56855;54.954;73.336;2022-07-01T03:40:32;2.00;2.00;0.00
65976;PMS5003;56855;54.954;73.336;2022-07-01T03:42:33;1.00;1.00;0.00
65976;PMS5003;56855;54.954;73.336;2022-07-01T03:44:33;4.00;3.33;0.00
65976;PMS5003;56855;54.954;73.336;2022-07-01T03:46:34;1.00;0.00;0.00
65976;PMS5003;56855;54.954;73.336;2022-07-01T03:48:35;3.00;0.75;0.00
65976;PMS5003;56855;54.954;73.336;2022-07-01T03:50:36;2.00;2.00;0.00
65976;PMS5003;56855;54.954;73.336;2022-07-01T03:52:37;3.00;2.00;0.00
65976;PMS5003;56855;54.954;73.336;2022-07-01T03:54:37;2.00;2.00;0.00
65976;PMS5003;56855;54.954;73.336;2022-07-01T03:56:38;3.00;2.00;0.00
65976;PMS5003;56855;54.954;73.336;2022-07-01T03:58:39;3.00;2.00;0.00
65976;PMS5003;56855;54.954;73.336;2022-07-01T04:00:40;2.00;2.00;0.00
65976;PMS5003;56855;54.954;73.336;2022-07-01T04:02:40;2.00;2.00;0.00
65976;PMS5003;56855;54.954;73.336;2022-07-01T04:04:41;2.00;2.00;0.00
65976;PMS5003;56855;54.954;73.336;2022-07-01T04:06:46;3.00;2.00;0.00
65976;PMS5003;56855;54.954;73.336;2022-07-01T04:08:47;1.00;0.00;0.00
65976;PMS5003;56855;54.954;73.336;2022-07-01T04:10:48;1.00;1.00;0.00
65976;PMS5003;56855;54.954;73.336;2022-07-01T04:12:54;1.50;1.00;0.00
65976;PMS5003;56855;54.954;73.336;2022-07-01T04:14:55;3.00;2.00;0.00
65976;PMS5003;56855;54.954;73.336;2022-07-01T04:17:06;3.50;2.00;0.00
65976;PMS5003;56855;54.954;73.336;2022-07-01T04:19:16;2.25;2.00;0.00
65976;PMS5003;56855;54.954;73.336;2022-07-01T04:21:17;4.50;3.00;0.00
65976;PMS5003;56855;54.954;73.336;2022-07-01T04:23:41;2.00;1.50;0.00
65976;PMS5003;56855;54.954;73.336;2022-07-01T04:25:43;4.00;3.50;0.00
65976;PMS5003;56855;54.954;73.336;2022-07-01T04:27:48;3.00;3.00;0.00
65976;PMS5003;56855;54.954;73.336;2022-07-01T04:29:49;3.00;3.00;0.00
65976;PMS5003;56855;54.954;73.336;2022-07-01T04:32:01;2.00;1.00;0.00
65976;PMS5003;56855;54.954;73.336;2022-07-01T04:34:01;4.50;4.25;0.00
65976;PMS5003;56855;54.954;73.336;2022-07-01T04:36:02;4.75;3.00;0.00
65976;PMS5003;56855;54.954;73.336;2022-07-01T04:38:03;3.00;2.00;0.00
65976;PMS5003;56855;54.954;73.336;2022-07-01T04:40:05;2.50;2.00;0.00
65976;PMS5003;56855;54.954;73.336;2022-07-01T04:42:06;1.00;1.00;0.00
65976;PMS5003;56855;54.954;73.336;2022-07-01T04:44:07;4.00;2.00;0.00
65976;PMS5003;56855;54.954;73.336;2022-07-01T04:46:08;3.00;3.00;0.00
65976;PMS5003;56855;54.954;73.336;2022-07-01T04:48:13;1.25;1.00;0.00
65976;PMS5003;56855;54.954;73.336;2022-07-01T04:50:15;3.00;2.00;0.00
65976;PMS5003;56855;54.954;73.336;2022-07-01T04:52:20;4.00;3.00;0.00
65976;PMS5003;56855;54.954;73.336;2022-07-01T04:54:20;4.00;3.00;0.00
65976;PMS5003;56855;54.954;73.336;2022-07-01T04:56:21;3.25;3.00;0.00
65976;PMS5003;56855;54.954;73.336;2022-07-01T04:58:22;1.67;1.67;0.00
65976;PMS5003;56855;54.954;73.336;2022-07-01T05:00:23;3.00;2.00;0.00
65976;PMS5003;56855;54.954;73.336;2022-07-01T05:02:24;3.00;2.75;0.00
65976;PMS5003;56855;54.954;73.336;2022-07-01T05:04:24;1.00;1.00;0.00
65976;PMS5003;56855;54.954;73.336;2022-07-01T05:06:28;1.75;1.00;0.00
65976;PMS5003;56855;54.954;73.336;2022-07-01T05:08:28;3.00;2.00;0.00
65976;PMS5003;56855;54.954;73.336;2022-07-01T05:10:29;4.00;4.00;0.00
65976;PMS5003;56855;54.954;73.336;2022-07-01T05:12:30;3.00;3.00;0.00
65976;PMS5003;56855;54.954;73.336;2022-07-01T05:14:31;3.00;2.00;0.00
65976;PMS5003;56855;54.954;73.336;2022-07-01T05:16:32;4.00;1.00;0.00
65976;PMS5003;56855;54.954;73.336;2022-07-01T05:18:33;6.00;3.00;0.00
65976;PMS5003;56855;54.954;73.336;2022-07-01T05:20:52;2.50;2.50;0.00
65976;PMS5003;56855;54.954;73.336;2022-07-01T05:23:16;4.00;3.75;0.00
65976;PMS5003;56855;54.954;73.336;2022-07-01T05:25:17;3.00;3.00;0.00
65976;PMS5003;56855;54.954;73.336;2022-07-01T05:27:17;4.00;4.00;0.00
65976;PMS5003;56855;54.954;73.336;2022-07-01T05:29:18;4.00;3.00;0.00
65976;PMS5003;56855;54.954;73.336;2022-07-01T05:31:24;4.00;3.75;0.00
65976;PMS5003;56855;54.954;73.336;2022-07-01T05:33:24;5.33;4.33;0.00
65976;PMS5003;56855;54.954;73.336;2022-07-01T05:35:28;3.00;3.00;0.00
65976;PMS5003;56855;54.954;73.336;2022-07-01T05:37:33;3.00;2.50;0.00
65976;PMS5003;56855;54.954;73.336;2022-07-01T05:39:34;3.00;3.00;0.00
65976;PMS5003;56855;54.954;73.336;2022-07-01T05:41:39;3.25;3.00;0.00
65976;PMS5003;56855;54.954;73.336;2022-07-01T05:43:40;3.00;3.00;0.00
65976;PMS5003;56855;54.954;73.336;2022-07-01T05:45:46;1.50;1.50;0.00
65976;PMS5003;56855;54.954;73.336;2022-07-01T05:47:55;3.00;3.00;0.00
65976;PMS5003;56855;54.954;73.336;2022-07-01T05:49:57;4.00;3.50;0.50
65976;PMS5003;56855;54.954;73.336;2022-07-01T05:51:57;3.00;3.00;0.00
65976;PMS5003;56855;54.954;73.336;2022-07-01T05:53:58;4.50;3.50;0.50
65976;PMS5003;56855;54.954;73.336;2022-07-01T05:55:59;4.00;4.00;0.00
65976;PMS5003;56855;54.954;73.336;2022-07-01T05:58:12;4.00;3.00;0.00
65976;PMS5003;56855;54.954;73.336;2022-07-01T06:00:13;4.00;4.00;0.00
65976;PMS5003;56855;54.954;73.336;2022-07-01T06:02:14;4.50;3.50;0.50
65976;PMS5003;56855;54.954;73.336;2022-07-01T06:04:19;4.00;3.25;0.00
65976;PMS5003;56855;54.954;73.336;2022-07-01T06:06:20;4.00;3.00;0.00
65976;PMS5003;56855;54.954;73.336;2022-07-01T06:08:21;3.00;3.00;0.00
65976;PMS5003;56855;54.954;73.336;2022-07-01T06:10:21;5.00;5.00;0.00
65976;PMS5003;56855;54.954;73.336;2022-07-01T06:12:22;4.50;4.25;1.50
65976;PMS5003;56855;54.954;73.336;2022-07-01T06:14:23;4.00;2.33;1.00
65976;PMS5003;56855;54.954;73.336;2022-07-01T06:16:33;5.00;5.00;1.00
65976;PMS5003;56855;54.954;73.336;2022-07-01T06:18:34;4.33;4.33;1.00
65976;PMS5003;56855;54.954;73.336;2022-07-01T06:20:34;6.00;6.00;1.00
65976;PMS5003;56855;54.954;73.336;2022-07-01T06:22:45;3.25;3.00;2.00
65976;PMS5003;56855;54.954;73.336;2022-07-01T06:24:49;5.00;5.00;2.00
65976;PMS5003;56855;54.954;73.336;2022-07-01T06:27:00;4.50;4.00;1.00
65976;PMS5003;56855;54.954;73.336;2022-07-01T06:29:00;6.00;4.00;2.00
65976;PMS5003;56855;54.954;73.336;2022-07-01T06:31:11;4.00;3.00;1.00
65976;PMS5003;56855;54.954;73.336;2022-07-01T06:33:12;4.33;4.33;1.00
65976;PMS5003;56855;54.954;73.336;2022-07-01T06:35:13;3.00;2.00;1.00
65976;PMS5003;56855;54.954;73.336;2022-07-01T06:37:18;3.50;3.00;1.00
65976;PMS5003;56855;54.954;73.336;2022-07-01T06:39:22;3.00;3.00;1.00
65976;PMS5003;56855;54.954;73.336;2022-07-01T06:41:28;4.00;3.00;1.00
65976;PMS5003;56855;54.954;73.336;2022-07-01T06:43:28;5.25;4.50;0.00
65976;PMS5003;56855;54.954;73.336;2022-07-01T06:45:29;5.00;4.00;0.00
65976;PMS5003;56855;54.954;73.336;2022-07-01T06:47:30;5.00;4.50;1.00
65976;PMS5003;56855;54.954;73.336;2022-07-01T06:49:31;4.00;3.33;1.00
65976;PMS5003;56855;54.954;73.336;2022-07-01T06:51:31;3.67;3.00;0.00
65976;PMS5003;56855;54.954;73.336;2022-07-01T06:53:32;3.33;3.00;0.00
65976;PMS5003;56855;54.954;73.336;2022-07-01T06:55:33;4.00;3.00;0.00
65976;PMS5003;56855;54.954;73.336;2022-07-01T06:57:33;3.00;3.00;0.00
65976;PMS5003;56855;54.954;73.336;2022-07-01T06:59:45;3.00;3.00;0.00
65976;PMS5003;56855;54.954;73.336;2022-07-01T07:01:45;5.00;4.67;0.00
65976;PMS5003;56855;54.954;73.336;2022-07-01T07:03:46;6.00;6.00;0.00
65976;PMS5003;56855;54.954;73.336;2022-07-01T07:05:46;6.00;6.00;0.00
65976;PMS5003;56855;54.954;73.336;2022-07-01T07:07:47;7.00;7.00;0.00
65976;PMS5003;56855;54.954;73.336;2022-07-01T07:09:50;6.00;5.25;0.00
65976;PMS5003;56855;54.954;73.336;2022-07-01T07:11:50;5.00;5.00;0.00
65976;PMS5003;56855;54.954;73.336;2022-07-01T07:13:51;5.00;4.00;0.00
65976;PMS5003;56855;54.954;73.336;2022-07-01T07:15:52;6.00;5.00;0.00
65976;PMS5003;56855;54.954;73.336;2022-07-01T07:18:03;5.00;4.00;1.00
65976;PMS5003;56855;54.954;73.336;2022-07-01T07:20:04;4.00;4.00;1.00
65976;PMS5003;56855;54.954;73.336;2022-07-01T07:22:04;5.00;4.75;0.00
65976;PMS5003;56855;54.954;73.336;2022-07-01T07:24:11;7.00;6.00;1.00
65976;PMS5003;56855;54.954;73.336;2022-07-01T07:26:12;4.00;4.00;2.00
65976;PMS5003;56855;54.954;73.336;2022-07-01T07:28:12;7.00;7.00;3.00
65976;PMS5003;56855;54.954;73.336;2022-07-01T07:30:13;6.00;6.00;3.00
65976;PMS5003;56855;54.954;73.336;2022-07-01T07:32:14;6.00;6.00;3.00
65976;PMS5003;56855;54.954;73.336;2022-07-01T07:34:24;6.75;5.00;2.00
65976;PMS5003;56855;54.954;73.336;2022-07-01T07:36:25;6.00;6.00;3.00
65976;PMS5003;56855;54.954;73.336;2022-07-01T07:38:26;5.00;5.00;2.00
65976;PMS5003;56855;54.954;73.336;2022-07-01T07:40:26;6.00;5.00;2.00
65976;PMS5003;56855;54.954;73.336;2022-07-01T07:42:27;7.00;6.00;2.00
65976;PMS5003;56855;54.954;73.336;2022-07-01T07:44:28;7.00;7.00;2.00
65976;PMS5003;56855;54.954;73.336;2022-07-01T07:46:29;6.00;6.00;1.00
65976;PMS5003;56855;54.954;73.336;2022-07-01T07:48:29;6.00;6.00;1.00
65976;PMS5003;56855;54.954;73.336;2022-07-01T07:50:35;6.00;6.00;1.25
65976;PMS5003;56855;54.954;73.336;2022-07-01T07:52:36;7.00;7.00;2.00
65976;PMS5003;56855;54.954;73.336;2022-07-01T07:54:47;7.00;7.00;2.00
65976;PMS5003;56855;54.954;73.336;2022-07-01T07:56:47;7.00;7.00;1.00
65976;PMS5003;56855;54.954;73.336;2022-07-01T07:58:49;8.50;7.00;2.00
65976;PMS5003;56855;54.954;73.336;2022-07-01T08:00:49;8.00;6.00;3.00
65976;PMS5003;56855;54.954;73.336;2022-07-01T08:02:50;7.00;6.00;2.00
65976;PMS5003;56855;54.954;73.336;2022-07-01T08:04:51;8.00;5.00;2.00
65976;PMS5003;56855;54.954;73.336;2022-07-01T08:06:51;8.67;6.67;3.00
65976;PMS5003;56855;54.954;73.336;2022-07-01T08:08:52;7.00;5.00;3.00
65976;PMS5003;56855;54.954;73.336;2022-07-01T08:10:53;7.00;7.00;3.00
65976;PMS5003;56855;54.954;73.336;2022-07-01T08:12:59;7.75;6.00;3.00
65976;PMS5003;56855;54.954;73.336;2022-07-01T08:15:04;7.00;6.00;2.00
65976;PMS5003;56855;54.954;73.336;2022-07-01T08:17:05;7.00;5.00;3.00
65976;PMS5003;56855;54.954;73.336;2022-07-01T08:19:05;6.00;5.00;3.00
65976;PMS5003;56855;54.954;73.336;2022-07-01T08:21:06;9.00;6.00;3.00
65976;PMS5003;56855;54.954;73.336;2022-07-01T08:23:07;5.00;4.00;2.00
65976;PMS5003;56855;54.954;73.336;2022-07-01T08:25:07;6.00;4.00;2.00
65976;PMS5003;56855;54.954;73.336;2022-07-01T08:27:08;4.00;3.00;2.00
65976;PMS5003;56855;54.954;73.336;2022-07-01T08:29:12;5.00;5.00;1.00
65976;PMS5003;56855;54.954;73.336;2022-07-01T08:31:13;6.33;6.00;0.33
65976;PMS5003;56855;54.954;73.336;2022-07-01T08:33:14;7.00;5.00;1.00
65976;PMS5003;56855;54.954;73.336;2022-07-01T08:35:14;5.00;4.00;0.00
65976;PMS5003;56855;54.954;73.336;2022-07-01T08:37:15;7.50;6.00;1.75
65976;PMS5003;56855;54.954;73.336;2022-07-01T08:39:16;6.00;5.67;2.00
65976;PMS5003;56855;54.954;73.336;2022-07-01T08:41:17;7.67;6.00;3.33
65976;PMS5003;56855;54.954;73.336;2022-07-01T08:43:19;5.50;4.25;2.00
65976;PMS5003;56855;54.954;73.336;2022-07-01T08:45:20;6.33;6.00;2.00
65976;PMS5003;56855;54.954;73.336;2022-07-01T08:47:31;5.00;5.00;1.00
65976;PMS5003;56855;54.954;73.336;2022-07-01T08:49:31;6.00;5.00;3.00
65976;PMS5003;56855;54.954;73.336;2022-07-01T08:51:32;9.33;9.33;4.00
65976;PMS5003;56855;54.954;73.336;2022-07-01T08:53:53;7.75;6.25;3.00
65976;PMS5003;56855;54.954;73.336;2022-07-01T08:55:53;8.00;8.00;3.00
65976;PMS5003;56855;54.954;73.336;2022-07-01T08:58:22;6.00;6.00;3.75
65976;PMS5003;56855;54.954;73.336;2022-07-01T09:00:32;7.00;6.00;3.00
65976;PMS5003;56855;54.954;73.336;2022-07-01T09:02:54;7.50;7.50;3.00
65976;PMS5003;56855;54.954;73.336;2022-07-01T09:05:04;9.50;8.00;3.00
65976;PMS5003;56855;54.954;73.336;2022-07-01T09:07:11;9.00;7.00;3.00
65976;PMS5003;56855;54.954;73.336;2022-07-01T09:09:12;8.00;7.00;2.67
65976;PMS5003;56855;54.954;73.336;2022-07-01T09:11:20;9.00;7.75;3.00
65976;PMS5003;56855;54.954;73.336;2022-07-01T09:13:21;9.00;9.00;3.00
65976;PMS5003;56855;54.954;73.336;2022-07-01T09:15:25;8.00;7.33;4.00
65976;PMS5003;56855;54.954;73.336;2022-07-01T09:17:38;7.00;7.00;3.00
65976;PMS5003;56855;54.954;73.336;2022-07-01T09:19:39;9.00;8.00;3.50
65976;PMS5003;56855;54.954;73.336;2022-07-01T09:21:41;10.00;8.00;4.75
65976;PMS5003;56855;54.954;73.336;2022-07-01T09:23:41;7.00;7.00;4.00
65976;PMS5003;56855;54.954;73.336;2022-07-01T09:25:49;7.75;7.25;4.00
65976;PMS5003;56855;54.954;73.336;2022-07-01T09:28:02;9.25;9.25;4.00
65976;PMS5003;56855;54.954;73.336;2022-07-01T09:30:08;12.00;9.25;4.00
65976;PMS5003;56855;54.954;73.336;2022-07-01T09:32:10;10.00;8.25;4.00
65976;PMS5003;56855;54.954;73.336;2022-07-01T09:34:11;9.00;8.75;4.00
65976;PMS5003;56855;54.954;73.336;2022-07-01T09:36:18;12.00;10.75;4.00
65976;PMS5003;56855;54.954;73.336;2022-07-01T09:38:19;9.00;9.00;4.00
65976;PMS5003;56855;54.954;73.336;2022-07-01T09:40:20;9.00;9.00;4.00
65976;PMS5003;56855;54.954;73.336;2022-07-01T09:42:22;9.00;7.00;4.00
65976;PMS5003;56855;54.954;73.336;2022-07-01T09:44:23;7.00;7.00;4.00
65976;PMS5003;56855;54.954;73.336;2022-07-01T09:46:28;7.00;7.00;4.00
65976;PMS5003;56855;54.954;73.336;2022-07-01T09:50:39;8.00;8.00;4.00
65976;PMS5003;56855;54.954;73.336;2022-07-01T09:52:40;11.75;10.25;5.75
65976;PMS5003;56855;54.954;73.336;2022-07-01T09:54:50;14.00;13.00;5.75
65976;PMS5003;56855;54.954;73.336;2022-07-01T09:56:51;14.00;12.00;6.00
65976;PMS5003;56855;54.954;73.336;2022-07-01T09:58:56;14.00;10.00;5.00
65976;PMS5003;56855;54.954;73.336;2022-07-01T10:00:57;15.00;10.00;5.00
65976;PMS5003;56855;54.954;73.336;2022-07-01T10:02:59;12.25;7.00;3.25
65976;PMS5003;56855;54.954;73.336;2022-07-01T10:05:02;10.25;7.75;4.50
65976;PMS5003;56855;54.954;73.336;2022-07-01T10:07:21;14.00;11.00;7.00
65976;PMS5003;56855;54.954;73.336;2022-07-01T10:11:43;17.00;11.00;4.25
65976;PMS5003;56855;54.954;73.336;2022-07-01T10:13:49;15.00;11.00;5.00
65976;PMS5003;56855;54.954;73.336;2022-07-01T10:15:50;14.75;14.00;5.00
65976;PMS5003;56855;54.954;73.336;2022-07-01T10:17:51;16.00;13.00;6.00
65976;PMS5003;56855;54.954;73.336;2022-07-01T10:20:08;14.00;11.25;5.75
65976;PMS5003;56855;54.954;73.336;2022-07-01T10:22:29;18.00;16.75;7.00
65976;PMS5003;56855;54.954;73.336;2022-07-01T10:24:32;18.00;17.00;6.00
65976;PMS5003;56855;54.954;73.336;2022-07-01T10:26:43;17.75;15.75;6.00
65976;PMS5003;56855;54.954;73.336;2022-07-01T10:28:44;18.00;17.00;7.00
65976;PMS5003;56855;54.954;73.336;2022-07-01T10:30:57;19.25;19.00;6.00
65976;PMS5003;56855;54.954;73.336;2022-07-01T10:32:59;19.00;18.00;7.00
65976;PMS5003;56855;54.954;73.336;2022-07-01T10:35:05;16.75;16.75;5.00
65976;PMS5003;56855;54.954;73.336;2022-07-01T10:37:11;15.75;15.00;6.00
65976;PMS5003;56855;54.954;73.336;2022-07-01T10:39:13;16.25;15.75;6.50
65976;PMS5003;56855;54.954;73.336;2022-07-01T10:43:41;18.00;14.25;6.75
65976;PMS5003;56855;54.954;73.336;2022-07-01T10:45:48;20.00;20.00;9.00
65976;PMS5003;56855;54.954;73.336;2022-07-01T10:47:49;20.67;19.00;7.67
65976;PMS5003;56855;54.954;73.336;2022-07-01T10:50:10;22.00;18.00;7.00
65976;PMS5003;56855;54.954;73.336;2022-07-01T10:52:12;20.75;20.00;8.00
65976;PMS5003;56855;54.954;73.336;2022-07-01T10:56:44;18.50;18.00;7.00
65976;PMS5003;56855;54.954;73.336;2022-07-01T10:59:00;19.00;19.00;8.00
65976;PMS5003;56855;54.954;73.336;2022-07-01T11:01:01;20.00;20.00;9.75
65976;PMS5003;56855;54.954;73.336;2022-07-01T11:03:08;19.67;19.00;8.00
65976;PMS5003;56855;54.954;73.336;2022-07-01T11:05:10;20.00;20.00;7.00
65976;PMS5003;56855;54.954;73.336;2022-07-01T11:07:11;19.25;18.00;6.00
65976;PMS5003;56855;54.954;73.336;2022-07-01T11:09:12;21.00;19.00;8.00
65976;PMS5003;56855;54.954;73.336;2022-07-01T11:11:22;19.00;18.00;8.50
65976;PMS5003;56855;54.954;73.336;2022-07-01T11:13:34;20.00;18.50;8.00
65976;PMS5003;56855;54.954;73.336;2022-07-01T11:15:35;19.25;17.25;6.00
65976;PMS5003;56855;54.954;73.336;2022-07-01T11:17:41;19.00;19.00;7.00
65976;PMS5003;56855;54.954;73.336;2022-07-01T11:19:48;21.00;20.00;8.00
65976;PMS5003;56855;54.954;73.336;2022-07-01T11:21:50;21.00;19.00;7.00
65976;PMS5003;56855;54.954;73.336;2022-07-01T11:24:01;19.00;19.00;7.00
65976;PMS5003;56855;54.954;73.336;2022-07-01T11:26:07;20.00;20.00;8.00
65976;PMS5003;56855;54.954;73.336;2022-07-01T11:28:07;20.00;20.00;7.25
65976;PMS5003;56855;54.954;73.336;2022-07-01T11:30:10;20.00;18.00;8.00
65976;PMS5003;56855;54.954;73.336;2022-07-01T11:32:23;20.00;17.00;7.00
65976;PMS5003;56855;54.954;73.336;2022-07-01T11:34:26;18.25;16.00;8.00
65976;PMS5003;56855;54.954;73.336;2022-07-01T11:36:37;20.00;15.00;7.00
65976;PMS5003;56855;54.954;73.336;2022-07-01T11:39:00;18.00;18.00;7.00
65976;PMS5003;56855;54.954;73.336;2022-07-01T11:41:29;19.00;18.00;7.00
65976;PMS5003;56855;54.954;73.336;2022-07-01T11:43:31;18.00;17.00;7.00
65976;PMS5003;56855;54.954;73.336;2022-07-01T11:45:37;18.00;17.00;6.00
65976;PMS5003;56855;54.954;73.336;2022-07-01T11:47:41;17.00;16.00;7.00
65976;PMS5003;56855;54.954;73.336;2022-07-01T11:49:45;16.33;16.00;7.00
65976;PMS5003;56855;54.954;73.336;2022-07-01T11:52:00;22.00;20.00;8.00
65976;PMS5003;56855;54.954;73.336;2022-07-01T11:54:01;21.00;18.00;8.75
65976;PMS5003;56855;54.954;73.336;2022-07-01T11:56:02;21.00;19.00;7.00
65976;PMS5003;56855;54.954;73.336;2022-07-01T11:58:08;21.00;19.00;6.00
65976;PMS5003;56855;54.954;73.336;2022-07-01T12:00:10;19.33;18.00;7.00